Terminal Aerodrome Forecast
Issued by NWS Melbourne, FL

Home | Current Version | Previous Version | Text Only | Print | Product List | Glossary On
Versions: 1 2 3 4 5 6 7 8 9 10 11 12 13 14 15 16 17 18 19 20 21 22 23 24
000
FTUS42 KMLB 290859 AAA
TAFMCO
TAF AMD
KMCO 290859Z 2909/3006 00000KT P6SM SKC
     FM291500 VRB05KT P6SM FEW045
     FM292100 12008KT P6SM SCT050
     FM300100 VRB04KT P6SM FEW060=

USA.gov is the U.S. government's official web portal to all federal, state and local government web resources and services.